Airfield :
LOGIN :

Register | Disclaimer

   EN    FR    IT 

 










Legend :    VFR   Marginal VFR   IFR   Intensive IFR   Very Intensive IFR
Visi :
Ceiling :
>= 8 km
>= 3000ft
5 to 8 km
1000 to 3000 ft
1500m to 5 km
500 to 1000 ft
800 to 1500m
200 to 500 ft
< 800m
< 200 ft
Symbols :   Thunderstorms  Fog  Heavy snow  Heavy precipitations  Wind > 20 kt
SIGMETs :     Misc.  Thunderstorms  Icing  Turbulence  Mountain Waves  Volcanic Ashes







- Airport Elevation : 200 ft


EBBL - Klein Brogel AB

CURRENT METAR :
  • 241125Z 24010KT 9999 FEW055 SCT250 23/09 Q1015 BLU BLU

EXPIRED METARs :
  • 241055Z 21009KT 9999 FEW055 SCT250 23/10 Q1015 BLU BLU
  • 241025Z 26007KT 9999 FEW050 SCT250 23/11 Q1015 BLU BLU
  • 240955Z 23008KT 9999 FEW080 SCT250 22/10 Q1015 BLU BLU
  • 240925Z 21004KT 9999 SCT090 BKN250 21/10 Q1015 BLU BLU
  • 240855Z 22004KT 9999 SCT090 BKN250 21/09 Q1016 BLU BLU

TAF TAF EBBL
Valid from the 24 at 10:00 until the 24 at 19:00 UTC


240841Z 2410/2419 26004KT 9999 SCT060 SCT140
TEMPO 2410/2414 28008G18KT BKN060 BKN140
TEMPO 2412/2419 FEW050 SCT090
No reported NOTAMs for that airfield.



MET'MAP, your aeronautical weather chart ! - Copyright ORBIFLY December 2007 - Disclaimer

ORBIFLY MET'MAP TEAM :

Programming & Development : Alexandra Zaïnal
Concept & Development : Baudouin d'Aumeries
Co-Development & Prog : Marc-Olivier Méhu
Technical & hardware support : Manuel Goepfert

Contact : metmap@orbifly.com




SOURCES & CREDITS :

   NOAA